createdAt,value
2022-10-02T00:01:44.291Z,93176.66
2022-10-02T00:04:15.899Z,93172.50
2022-10-02T00:06:47.846Z,93175.41
2022-10-02T00:09:37.712Z,93186.72
2022-10-02T00:12:08.655Z,93196.47
2022-10-02T00:14:38.517Z,93200.97
2022-10-02T00:17:06.915Z,93204.69
2022-10-02T00:19:33.476Z,93202.88
2022-10-02T00:22:15.239Z,93203.16
2022-10-02T00:25:03.187Z,93204.25
2022-10-02T00:27:52.720Z,93190.34
2022-10-02T00:30:19.249Z,93195.66
2022-10-02T00:33:01.445Z,93195.91
2022-10-02T00:35:47.979Z,93194.34
2022-10-02T00:38:26.304Z,93191.72
2022-10-02T00:40:58.694Z,93203.28
2022-10-02T00:44:09.625Z,93199.34
2022-10-02T00:47:14.266Z,93204.84
2022-10-02T00:50:08.567Z,93198.03
2022-10-02T00:52:44.005Z,93191.78
2022-10-02T00:55:25.471Z,93196.25
2022-10-02T00:58:10.550Z,93203.34
2022-10-02T01:00:37.723Z,93199.13
2022-10-02T01:03:22.452Z,93200.22
2022-10-02T01:05:49.756Z,93200.22
2022-10-02T01:08:17.281Z,93198.66
2022-10-02T01:10:44.247Z,93195.47
2022-10-02T01:13:10.760Z,93196.50
2022-10-02T01:15:44.389Z,93202.31
2022-10-02T01:18:13.957Z,93208.06
2022-10-02T01:20:44.959Z,93208.06
2022-10-02T01:23:30.146Z,93200.72
2022-10-02T01:25:58.262Z,93200.22
2022-10-02T01:28:25.182Z,93196.03
2022-10-02T01:30:57.316Z,93198.19
2022-10-02T01:33:23.862Z,93213.19
2022-10-02T01:35:51.209Z,93209.78
2022-10-02T01:38:23.067Z,93208.72
2022-10-02T01:40:49.491Z,93206.84
2022-10-02T01:43:21.839Z,93208.66
2022-10-02T01:45:54.357Z,93198.97
2022-10-02T01:48:33.329Z,93192.94
2022-10-02T01:51:07.515Z,93197.72
2022-10-02T01:53:50.448Z,93191.94
2022-10-02T01:56:35.052Z,93187.47
2022-10-02T01:59:25.168Z,93186.19
2022-10-02T02:02:13.840Z,93199.88
2022-10-02T02:05:11.119Z,93195.13
2022-10-02T02:07:52.820Z,93196.72
2022-10-02T02:10:32.092Z,93192.50
2022-10-02T02:13:11.097Z,93212.50
2022-10-02T02:16:03.484Z,93198.81
2022-10-02T02:18:35.113Z,93194.59
2022-10-02T02:21:08.984Z,93190.94
2022-10-02T02:23:39.031Z,93177.50
2022-10-02T02:26:12.403Z,93193.28
2022-10-02T02:28:47.570Z,93192.22
2022-10-02T02:31:20.438Z,93193.03
2022-10-02T02:33:52.846Z,93188.31
2022-10-02T02:36:24.188Z,93186.97
2022-10-02T02:38:58.441Z,93181.41
2022-10-02T02:41:28.226Z,93179.81
2022-10-02T02:44:22.024Z,93194.59
2022-10-02T02:47:03.706Z,93191.44
2022-10-02T02:49:44.474Z,93199.28
2022-10-02T02:52:18.275Z,93198.25
2022-10-02T02:54:50.402Z,93193.50
2022-10-02T02:57:24.223Z,93182.47
2022-10-02T02:59:52.502Z,93179.56
2022-10-02T03:02:18.995Z,93191.69
2022-10-02T03:04:45.499Z,93178.75
2022-10-02T03:07:15.984Z,93184.03
2022-10-02T03:09:55.117Z,93196.66
2022-10-02T03:12:33.308Z,93205.06
2022-10-02T03:15:11.839Z,93210.09
2022-10-02T03:17:44.221Z,93205.59
2022-10-02T03:20:24.205Z,93198.75
2022-10-02T03:23:09.922Z,93202.19
2022-10-02T03:25:43.027Z,93192.72
2022-10-02T03:28:31.765Z,93183.50
2022-10-02T03:31:05.569Z,93190.84
2022-10-02T03:33:35.600Z,93179.78
2022-10-02T03:36:02.336Z,93186.09
2022-10-02T03:38:29.404Z,93188.22
2022-10-02T03:40:58.274Z,93199.81
2022-10-02T03:43:28.394Z,93192.44
2022-10-02T03:45:54.908Z,93197.16
2022-10-02T03:48:21.339Z,93186.63
2022-10-02T03:50:47.907Z,93181.66
2022-10-02T03:53:20.085Z,93177.19
2022-10-02T03:55:51.751Z,93178.00
2022-10-02T03:58:19.002Z,93184.03
2022-10-02T04:01:13.022Z,93171.91
2022-10-02T04:03:52.844Z,93176.16
2022-10-02T04:06:25.272Z,93183.28
2022-10-02T04:09:02.318Z,93185.09
2022-10-02T04:11:40.961Z,93181.97
2022-10-02T04:14:20.517Z,93187.78
2022-10-02T04:16:57.364Z,93190.13
2022-10-02T04:19:29.478Z,93182.75
2022-10-02T04:22:07.947Z,93195.63
2022-10-02T04:24:45.756Z,93186.19
2022-10-02T04:27:26.281Z,93183.50
2022-10-02T04:29:58.164Z,93174.84
2022-10-02T04:32:27.155Z,93180.91
2022-10-02T04:34:54.503Z,93180.94
2022-10-02T04:37:48.142Z,93180.94
2022-10-02T04:40:29.835Z,93186.19
2022-10-02T04:43:02.079Z,93175.38
2022-10-02T04:45:46.879Z,93168.31
2022-10-02T04:48:46.353Z,93164.63
2022-10-02T04:51:30.883Z,93168.84
2022-10-02T04:54:17.558Z,93166.47
2022-10-02T04:56:56.232Z,93172.28
2022-10-02T04:59:30.371Z,93160.94
2022-10-02T05:02:08.191Z,93158.31
2022-10-02T05:04:51.871Z,93158.59
2022-10-02T05:07:46.065Z,93160.44
2022-10-02T05:10:44.354Z,93158.09
2022-10-02T05:13:38.106Z,93150.97
2022-10-02T05:16:26.155Z,93147.56
2022-10-02T05:19:04.923Z,93146.25
2022-10-02T05:22:03.158Z,93148.59
2022-10-02T05:25:02.248Z,93150.19
2022-10-02T05:27:47.352Z,93145.75
2022-10-02T05:30:15.991Z,93139.44
2022-10-02T05:33:09.132Z,93142.59
2022-10-02T05:35:53.124Z,93144.16
2022-10-02T05:38:50.637Z,93147.84
2022-10-02T05:42:15.602Z,93143.09
2022-10-02T05:44:49.673Z,93145.22
2022-10-02T05:47:26.361Z,93142.06
2022-10-02T05:50:18.892Z,93146.28
2022-10-02T05:52:51.131Z,93136.81
2022-10-02T05:55:28.479Z,93147.84
2022-10-02T05:58:27.817Z,93142.03
2022-10-02T06:01:02.541Z,93138.38
2022-10-02T06:03:49.042Z,93138.38
2022-10-02T06:06:35.728Z,93146.28
2022-10-02T06:09:19.552Z,93143.41
2022-10-02T06:12:04.679Z,93128.94
2022-10-02T06:14:36.764Z,93128.13
2022-10-02T06:17:22.020Z,93130.53
2022-10-02T06:20:04.088Z,93127.94
2022-10-02T06:22:41.553Z,93129.00
2022-10-02T06:25:20.230Z,93128.47
2022-10-02T06:27:55.303Z,93123.22
2022-10-02T06:30:22.100Z,93126.38
2022-10-02T06:33:01.234Z,93128.47
2022-10-02T06:35:38.579Z,93129.56
2022-10-02T06:38:35.441Z,93133.50
2022-10-02T06:41:20.428Z,93136.13
2022-10-02T06:43:52.878Z,93148.50
2022-10-02T06:46:40.109Z,93139.81
2022-10-02T06:49:31.613Z,93134.31
2022-10-02T06:52:12.120Z,93122.16
2022-10-02T06:54:53.415Z,93120.06
2022-10-02T06:57:30.437Z,93122.66
2022-10-02T07:00:18.121Z,93119.00
2022-10-02T07:03:19.848Z,93122.41
2022-10-02T07:06:06.941Z,93120.03
2022-10-02T07:09:01.313Z,93127.66
2022-10-02T07:11:35.634Z,93130.03
2022-10-02T07:14:16.104Z,93134.00
2022-10-02T07:16:57.658Z,93141.91
2022-10-02T07:19:30.700Z,93154.03
2022-10-02T07:22:15.189Z,93136.88
2022-10-02T07:25:05.329Z,93129.50
2022-10-02T07:27:45.147Z,93136.88
2022-10-02T07:30:15.088Z,93134.75
2022-10-02T07:32:54.030Z,93135.28
2022-10-02T07:35:31.300Z,93138.44
2022-10-02T07:38:17.093Z,93121.00
2022-10-02T07:41:00.744Z,93130.72
2022-10-02T07:43:44.772Z,93122.53
2022-10-02T07:46:22.671Z,93140.50
2022-10-02T07:49:04.263Z,93143.13
2022-10-02T07:51:51.451Z,93131.75
2022-10-02T07:54:38.529Z,93141.53
2022-10-02T07:57:13.290Z,93136.53
2022-10-02T07:59:43.405Z,93143.63
2022-10-02T08:02:27.784Z,93129.09
2022-10-02T08:05:00.749Z,93143.06
2022-10-02T08:07:29.388Z,93125.28
2022-10-02T08:10:01.950Z,93126.03
2022-10-02T08:12:39.817Z,93128.88
2022-10-02T08:15:11.864Z,93128.84
2022-10-02T08:17:45.370Z,93109.53
2022-10-02T08:20:27.426Z,93104.72
2022-10-02T08:23:06.991Z,93113.63
2022-10-02T08:25:49.293Z,93109.06
2022-10-02T08:28:25.415Z,93124.84
2022-10-02T08:30:52.265Z,93109.22
2022-10-02T08:33:20.570Z,93108.84
2022-10-02T08:36:16.469Z,93111.72
2022-10-02T08:38:51.395Z,93121.69
2022-10-02T08:42:01.200Z,93107.88
2022-10-02T08:45:02.310Z,93101.94
2022-10-02T08:47:54.451Z,93105.38
2022-10-02T08:50:37.877Z,93103.25
2022-10-02T08:53:25.734Z,93099.66
2022-10-02T08:56:11.654Z,93102.91
2022-10-02T08:59:01.321Z,93111.88
2022-10-02T09:01:35.112Z,93097.16
2022-10-02T09:04:34.023Z,93094.78
2022-10-02T09:07:17.590Z,93115.53
2022-10-02T09:09:46.901Z,93096.78
2022-10-02T09:12:25.727Z,93106.59
2022-10-02T09:15:09.950Z,93096.69
2022-10-02T09:17:48.704Z,93102.16
2022-10-02T09:20:37.089Z,93098.50
2022-10-02T09:23:57.369Z,93104.75
2022-10-02T09:26:29.557Z,93107.09
2022-10-02T09:29:06.331Z,93124.56
2022-10-02T09:32:26.186Z,93144.03
2022-10-02T09:35:20.225Z,93102.53
2022-10-02T09:38:08.317Z,93100.88
2022-10-02T09:40:53.168Z,93106.03
2022-10-02T09:44:02.044Z,93089.03
2022-10-02T09:46:48.065Z,93106.59
2022-10-02T09:49:33.328Z,93102.56
2022-10-02T09:52:21.422Z,93121.09
2022-10-02T09:55:00.244Z,93113.84
2022-10-02T09:57:44.675Z,93090.03
2022-10-02T10:00:32.331Z,93100.66
2022-10-02T10:03:37.043Z,93089.72
2022-10-02T10:06:35.036Z,93083.38
2022-10-02T10:09:40.381Z,93089.97
2022-10-02T10:12:41.312Z,93084.94
2022-10-02T10:15:44.734Z,93095.50
2022-10-02T10:18:17.668Z,93091.53
2022-10-02T10:20:54.287Z,93090.47
2022-10-02T10:23:46.876Z,93104.13
2022-10-02T10:26:43.997Z,93107.06
2022-10-02T10:29:28.492Z,93105.28
2022-10-02T10:32:22.867Z,93106.91
2022-10-02T10:34:55.091Z,93105.75
2022-10-02T10:37:52.382Z,93108.69
2022-10-02T10:40:38.651Z,93116.66
2022-10-02T10:43:36.467Z,93116.53
2022-10-02T10:46:12.260Z,93109.06
2022-10-02T10:48:49.177Z,93116.59
2022-10-02T10:51:35.102Z,93111.41
2022-10-02T10:54:40.628Z,93112.38
2022-10-02T10:57:29.473Z,93108.69
2022-10-02T11:00:20.031Z,93108.66
2022-10-02T11:03:11.002Z,93114.38
2022-10-02T11:06:11.445Z,93112.31
2022-10-02T11:08:50.053Z,93107.94
2022-10-02T11:11:31.927Z,93107.28
2022-10-02T11:14:35.298Z,93110.91
2022-10-02T11:17:23.355Z,93111.75
2022-10-02T11:20:03.246Z,93107.84
2022-10-02T11:22:38.785Z,93104.59
2022-10-02T11:25:34.725Z,93101.56
2022-10-02T11:28:34.083Z,93088.25
2022-10-02T11:31:16.572Z,93091.63
2022-10-02T11:34:01.819Z,93092.22
2022-10-02T11:36:53.228Z,93088.75
2022-10-02T11:39:52.118Z,93084.53
2022-10-02T11:42:49.703Z,93083.06
2022-10-02T11:45:55.506Z,93081.34
2022-10-02T11:48:41.247Z,93079.63
2022-10-02T11:51:17.347Z,93068.91
2022-10-02T11:54:02.542Z,93064.72
2022-10-02T11:56:31.960Z,93054.09
2022-10-02T11:59:39.793Z,93055.41
2022-10-02T12:02:18.018Z,93042.28
2022-10-02T12:05:33.757Z,93040.00
2022-10-02T12:08:24.110Z,93045.09
2022-10-02T12:11:07.501Z,93041.72
2022-10-02T12:13:39.574Z,93024.16
2022-10-02T12:16:14.019Z,93021.31
2022-10-02T12:18:49.368Z,93011.78
2022-10-02T12:22:08.895Z,93016.09
2022-10-02T12:25:14.114Z,93014.47
2022-10-02T12:28:10.352Z,92999.88
2022-10-02T12:31:10.358Z,93015.88
2022-10-02T12:33:59.808Z,93003.03
2022-10-02T12:36:58.206Z,93008.75
2022-10-02T12:39:40.044Z,93017.72
2022-10-02T12:42:26.719Z,93024.78
2022-10-02T12:45:09.260Z,93018.28
2022-10-02T12:48:02.934Z,93010.94
2022-10-02T12:50:54.969Z,93005.53
2022-10-02T12:53:39.974Z,93002.28
2022-10-02T12:56:35.219Z,93003.81
2022-10-02T12:59:09.033Z,92997.69
2022-10-02T13:01:54.310Z,93012.25
2022-10-02T13:04:51.254Z,93003.81
2022-10-02T13:07:33.381Z,92991.69
2022-10-02T13:10:19.231Z,93011.75
2022-10-02T13:13:16.945Z,92974.16
2022-10-02T13:15:59.626Z,92986.72
2022-10-02T13:18:50.380Z,93001.91
2022-10-02T13:21:22.481Z,93009.75
2022-10-02T13:24:04.217Z,93002.75
2022-10-02T13:26:35.852Z,92998.19
2022-10-02T13:29:17.545Z,93001.38
2022-10-02T13:31:49.725Z,93017.09
2022-10-02T13:34:26.605Z,93010.16
2022-10-02T13:37:21.488Z,93016.72
2022-10-02T13:40:03.898Z,92998.53
2022-10-02T13:42:48.767Z,93000.97
2022-10-02T13:45:22.286Z,92992.00
2022-10-02T13:47:54.723Z,93003.09
2022-10-02T13:50:46.643Z,93005.25
2022-10-02T13:53:39.183Z,92993.09
2022-10-02T13:56:13.281Z,93009.03
2022-10-02T13:59:02.165Z,93010.38
2022-10-02T14:01:45.910Z,93035.13
2022-10-02T14:04:31.331Z,93030.00
2022-10-02T14:07:20.108Z,93026.59
2022-10-02T14:10:13.126Z,93062.38
2022-10-02T14:12:57.183Z,93053.88
2022-10-02T14:15:55.249Z,93044.38
2022-10-02T14:18:35.305Z,93040.41
2022-10-02T14:21:20.522Z,93041.41
2022-10-02T14:24:07.900Z,93033.28
2022-10-02T14:26:56.152Z,93050.50
2022-10-02T14:29:47.259Z,93043.94
2022-10-02T14:32:40.415Z,93046.84
2022-10-02T14:35:47.751Z,93043.69
2022-10-02T14:38:44.201Z,93052.38
2022-10-02T14:41:28.540Z,93056.50
2022-10-02T14:44:07.298Z,93038.91
2022-10-02T14:46:49.611Z,93047.13
2022-10-02T14:49:43.729Z,93046.63
2022-10-02T14:52:43.543Z,93054.06
2022-10-02T14:55:32.621Z,93055.44
2022-10-02T14:58:12.375Z,93062.28
2022-10-02T15:00:51.512Z,93053.34
2022-10-02T15:03:47.089Z,93034.06
2022-10-02T15:06:22.052Z,93041.78
2022-10-02T15:09:17.756Z,93043.53
2022-10-02T15:12:00.064Z,93037.50
2022-10-02T15:14:39.254Z,93033.53
2022-10-02T15:17:42.205Z,93039.78
2022-10-02T15:20:29.818Z,93045.56
2022-10-02T15:23:10.436Z,93036.06
2022-10-02T15:26:16.784Z,93046.19
2022-10-02T15:29:09.076Z,93045.75
2022-10-02T15:31:46.051Z,93042.66
2022-10-02T15:34:27.404Z,93045.22
2022-10-02T15:37:19.390Z,93033.28
2022-10-02T15:40:16.852Z,93015.53
2022-10-02T15:43:27.564Z,93013.41
2022-10-02T15:46:06.252Z,93013.84
2022-10-02T15:48:46.068Z,93030.59
2022-10-02T15:51:38.458Z,93046.72
2022-10-02T15:54:24.828Z,93041.50
2022-10-02T15:57:22.172Z,93035.66
2022-10-02T16:00:26.001Z,93044.22
2022-10-02T16:03:03.083Z,93039.41
2022-10-02T16:05:38.871Z,93042.09
2022-10-02T16:08:39.829Z,93036.31
2022-10-02T16:11:29.024Z,93054.84
2022-10-02T16:14:15.209Z,93050.38
2022-10-02T16:16:42.140Z,93049.84
2022-10-02T16:19:30.350Z,93042.44
2022-10-02T16:22:17.971Z,93040.34
2022-10-02T16:25:32.162Z,93045.63
2022-10-02T16:28:13.714Z,93054.88
2022-10-02T16:31:03.199Z,93048.03
2022-10-02T16:33:47.631Z,93055.69
2022-10-02T16:36:49.575Z,93073.91
2022-10-02T16:39:37.565Z,93068.66
2022-10-02T16:42:16.297Z,93073.13
2022-10-02T16:44:57.101Z,93076.06
2022-10-02T16:48:06.366Z,93087.09
2022-10-02T16:50:48.980Z,93090.75
2022-10-02T16:53:25.955Z,93091.25
2022-10-02T16:56:06.614Z,93081.75
2022-10-02T16:58:44.111Z,93102.84
2022-10-02T17:01:27.599Z,93103.13
2022-10-02T17:03:54.464Z,93102.66
2022-10-02T17:06:27.050Z,93117.94
2022-10-02T17:09:09.559Z,93121.47
2022-10-02T17:11:59.041Z,93115.13
2022-10-02T17:14:40.884Z,93126.75
2022-10-02T17:17:23.009Z,93125.13
2022-10-02T17:20:03.696Z,93134.84
2022-10-02T17:22:43.013Z,93139.94
2022-10-02T17:25:27.188Z,93139.41
2022-10-02T17:28:22.575Z,93141.28
2022-10-02T17:31:01.390Z,93145.78
2022-10-02T17:33:39.320Z,93157.94
2022-10-02T17:36:18.708Z,93155.78
2022-10-02T17:39:03.515Z,93149.69
2022-10-02T17:41:40.143Z,93148.88
2022-10-02T17:44:22.376Z,93150.69
2022-10-02T17:47:13.727Z,93154.66
2022-10-02T17:49:52.214Z,93162.28
2022-10-02T17:53:03.551Z,93168.38
2022-10-02T17:56:03.944Z,93170.53
2022-10-02T17:58:40.961Z,93164.13
2022-10-02T18:01:23.783Z,93166.50
2022-10-02T18:04:18.779Z,93156.47
2022-10-02T18:07:04.145Z,93162.59
2022-10-02T18:09:45.467Z,93167.31
2022-10-02T18:12:26.068Z,93176.28
2022-10-02T18:15:23.614Z,93181.28
2022-10-02T18:18:08.262Z,93178.09
2022-10-02T18:21:13.846Z,93176.81
2022-10-02T18:23:42.926Z,93183.44
2022-10-02T18:26:31.370Z,93180.53
2022-10-02T18:29:18.721Z,93173.91
2022-10-02T18:32:15.453Z,93187.91
2022-10-02T18:34:56.986Z,93187.91
2022-10-02T18:37:50.971Z,93212.75
2022-10-02T18:40:26.057Z,93224.16
2022-10-02T18:43:03.046Z,93228.63
2022-10-02T18:45:34.449Z,93230.22
2022-10-02T18:48:38.221Z,93241.84
2022-10-02T18:51:10.816Z,93260.84
2022-10-02T18:54:11.740Z,93275.09
2022-10-02T18:57:07.209Z,93267.19
2022-10-02T18:59:55.207Z,93274.06
2022-10-02T19:02:30.573Z,93274.31
2022-10-02T19:05:12.072Z,93277.72
2022-10-02T19:07:42.062Z,93277.19
2022-10-02T19:10:32.614Z,93280.59
2022-10-02T19:13:18.189Z,93291.72
2022-10-02T19:15:46.821Z,93294.59
2022-10-02T19:18:21.257Z,93300.41
2022-10-02T19:20:58.502Z,93304.09
2022-10-02T19:23:30.816Z,93303.03
2022-10-02T19:26:04.792Z,93294.06
2022-10-02T19:28:34.186Z,93297.50
2022-10-02T19:31:07.143Z,93301.97
2022-10-02T19:33:45.924Z,93300.13
2022-10-02T19:36:19.951Z,93306.72
2022-10-02T19:39:10.239Z,93309.88
2022-10-02T19:41:42.864Z,93298.25
2022-10-02T19:44:22.785Z,93313.03
2022-10-02T19:46:52.905Z,93305.66
2022-10-02T19:49:23.504Z,93319.88
2022-10-02T19:51:54.919Z,93317.78
2022-10-02T19:54:31.778Z,93335.16
2022-10-02T19:57:14.793Z,93327.50
2022-10-02T19:59:46.350Z,93331.19
2022-10-02T20:02:26.998Z,93337.75
2022-10-02T20:04:57.136Z,93335.13
2022-10-02T20:07:26.902Z,93338.03
2022-10-02T20:09:58.337Z,93330.09
2022-10-02T20:12:31.537Z,93338.56
2022-10-02T20:15:17.623Z,93332.47
2022-10-02T20:17:44.307Z,93328.25
2022-10-02T20:20:13.685Z,93330.63
2022-10-02T20:22:54.353Z,93329.31
2022-10-02T20:25:31.278Z,93344.56
2022-10-02T20:28:29.292Z,93339.78
2022-10-02T20:31:04.102Z,93341.59
2022-10-02T20:33:33.604Z,93340.78
2022-10-02T20:36:29.003Z,93347.09
2022-10-02T20:39:03.587Z,93344.69
2022-10-02T20:41:42.865Z,93347.56
2022-10-02T20:44:12.747Z,93352.25
2022-10-02T20:47:24.196Z,93368.13
2022-10-02T20:50:08.877Z,93366.28
2022-10-02T20:53:02.110Z,93371.84
2022-10-02T20:55:53.348Z,93378.69
2022-10-02T20:58:22.483Z,93376.06
2022-10-02T21:01:03.656Z,93388.16
2022-10-02T21:04:06.897Z,93384.72
2022-10-02T21:07:07.180Z,93388.69
2022-10-02T21:10:08.885Z,93385.03
2022-10-02T21:13:16.461Z,93390.06
2022-10-02T21:15:58.007Z,93399.22
2022-10-02T21:18:48.827Z,93405.00
2022-10-02T21:21:43.395Z,93403.91
2022-10-02T21:24:20.441Z,93405.25
2022-10-02T21:26:47.147Z,93410.28
2022-10-02T21:29:53.125Z,93410.19
2022-10-02T21:32:57.005Z,93413.66
2022-10-02T21:35:38.477Z,93420.19
2022-10-02T21:38:17.495Z,93415.72
2022-10-02T21:41:21.537Z,93418.59
2022-10-02T21:44:10.157Z,93426.47
2022-10-02T21:47:19.037Z,93433.03
2022-10-02T21:50:10.666Z,93441.94
2022-10-02T21:52:55.657Z,93438.50
2022-10-02T21:55:56.136Z,93436.69
2022-10-02T21:58:47.412Z,93432.78
2022-10-02T22:01:51.811Z,93434.34
2022-10-02T22:04:57.015Z,93437.78
2022-10-02T22:07:35.976Z,93445.63
2022-10-02T22:10:22.055Z,93445.88
2022-10-02T22:13:18.416Z,93452.69
2022-10-02T22:15:55.238Z,93453.94
2022-10-02T22:18:27.632Z,93456.53
2022-10-02T22:21:12.238Z,93458.09
2022-10-02T22:23:54.851Z,93452.53
2022-10-02T22:26:54.109Z,93453.56
2022-10-02T22:29:39.463Z,93461.47
2022-10-02T22:32:52.762Z,93455.38
2022-10-02T22:35:53.270Z,93460.66
2022-10-02T22:38:40.246Z,93473.81
2022-10-02T22:41:26.146Z,93467.75
2022-10-02T22:43:58.397Z,93467.75
2022-10-02T22:46:43.987Z,93476.22
2022-10-02T22:49:29.359Z,93476.22
2022-10-02T22:52:20.585Z,93484.34
2022-10-02T22:55:07.447Z,93477.00
2022-10-02T22:57:46.366Z,93473.03
2022-10-02T23:00:18.697Z,93478.28
2022-10-02T23:03:12.102Z,93481.97
2022-10-02T23:05:50.141Z,93473.03
2022-10-02T23:08:33.958Z,93480.66
2022-10-02T23:11:16.832Z,93476.94
2022-10-02T23:13:58.381Z,93478.00
2022-10-02T23:16:48.980Z,93478.78
2022-10-02T23:19:25.583Z,93476.41
2022-10-02T23:21:59.146Z,93486.63
2022-10-02T23:24:32.397Z,93476.59
2022-10-02T23:27:14.112Z,93471.63
2022-10-02T23:29:54.011Z,93475.63
2022-10-02T23:32:27.755Z,93468.19
2022-10-02T23:35:14.503Z,93476.91
2022-10-02T23:37:49.974Z,93461.66
2022-10-02T23:40:49.247Z,93467.19
2022-10-02T23:43:36.779Z,93466.34
2022-10-02T23:46:09.678Z,93475.00
2022-10-02T23:48:38.481Z,93476.06
2022-10-02T23:51:17.574Z,93471.59
2022-10-02T23:54:08.505Z,93472.66
2022-10-02T23:57:18.369Z,93492.28
